Time;durP1;ratioP1;P1;durP2;ratioP2;P2;SDS_P1;SDS_P2;PMS_P1;PMS_P2;Temp;Humidity;BMP_temperature;BMP_pressure;BME280_temperature;BME280_humidity;BME280_pressure;Samples;Min_cycle;Max_cycle;Signal;HPM_P1;HPM_P2
2022/06/08 00:00:25;;;;;;;4.80;1.30;;;17.00;99.90;;;;;;4166931;28;20168;-90
2022/06/08 00:02:28;;;;;;;3.60;1.33;;;17.10;99.90;;;;;;4167251;28;20191;-90
2022/06/08 00:04:29;;;;;;;4.65;1.15;;;17.10;99.90;;;;;;4178530;28;20230;-90
2022/06/08 00:06:30;;;;;;;4.82;1.15;;;17.10;99.90;;;;;;4180095;28;20168;-91
2022/06/08 00:08:31;;;;;;;3.25;1.40;;;17.10;99.90;;;;;;4183358;28;20203;-91
2022/06/08 00:10:32;;;;;;;4.53;1.13;;;17.10;99.90;;;;;;4167000;28;20160;-90
2022/06/08 00:12:33;;;;;;;4.68;1.50;;;17.10;99.90;;;;;;4183442;28;20644;-92
2022/06/08 00:14:34;;;;;;;4.28;1.38;;;17.10;99.90;;;;;;4166719;28;20176;-91
2022/06/08 00:16:35;;;;;;;4.55;1.40;;;17.10;99.90;;;;;;4166631;28;20625;-91
2022/06/08 00:18:35;;;;;;;6.05;1.50;;;17.10;99.90;;;;;;4182942;28;20219;-90
2022/06/08 00:20:38;;;;;;;3.85;1.42;;;17.00;99.90;;;;;;4183169;28;20183;-90
2022/06/08 00:22:39;;;;;;;3.78;1.55;;;17.10;99.90;;;;;;4166611;28;20222;-90
2022/06/08 00:24:40;;;;;;;8.73;1.55;;;17.10;99.90;;;;;;4182753;28;20699;-92
2022/06/08 00:26:41;;;;;;;4.20;1.30;;;17.10;99.90;;;;;;4166442;28;20207;-91
2022/06/08 00:28:41;;;;;;;5.10;1.70;;;17.10;99.90;;;;;;4182242;28;20206;-90
2022/06/08 00:30:43;;;;;;;2.10;1.33;;;17.00;99.90;;;;;;4166306;28;20710;-90
2022/06/08 00:32:44;;;;;;;9.05;1.33;;;17.00;99.90;;;;;;4166487;28;20207;-91
2022/06/08 00:34:45;;;;;;;3.10;1.05;;;16.90;99.90;;;;;;4183180;28;20175;-91
2022/06/08 00:36:46;;;;;;;4.93;1.38;;;16.80;99.90;;;;;;4166380;28;20195;-90
2022/06/08 00:38:46;;;;;;;6.82;1.42;;;16.70;99.90;;;;;;4166050;28;20200;-91
2022/06/08 00:41:18;;;;;;;6.97;1.73;;;16.60;99.90;;;;;;4165888;28;20169;-91
2022/06/08 00:43:19;;;;;;;2.45;1.30;;;16.40;99.90;;;;;;4178073;28;20266;-91
2022/06/08 00:45:23;;;;;;;2.75;1.40;;;16.30;99.90;;;;;;4166365;28;20668;-90
2022/06/08 00:47:28;;;;;;;5.22;1.75;;;16.20;99.90;;;;;;4166024;28;20164;-91
2022/06/08 00:49:47;;;;;;;5.20;1.42;;;16.10;99.90;;;;;;4166062;28;20176;-92
2022/06/08 00:51:49;;;;;;;4.07;1.33;;;16.00;99.90;;;;;;4166129;28;20172;-91
2022/06/08 00:53:55;;;;;;;4.53;1.70;;;15.90;99.90;;;;;;4166236;28;20568;-92
2022/06/08 00:55:58;;;;;;;8.40;1.58;;;15.80;99.90;;;;;;4166062;28;20172;-91
2022/06/08 00:58:04;;;;;;;4.13;1.52;;;15.80;99.90;;;;;;4182692;28;20214;-90
2022/06/08 01:00:12;;;;;;;7.38;1.40;;;15.70;99.90;;;;;;4166229;28;20168;-91
2022/06/08 01:02:14;;;;;;;4.90;1.30;;;15.70;99.90;;;;;;4182616;28;20179;-89
2022/06/08 01:04:17;;;;;;;5.57;1.50;;;15.70;99.90;;;;;;4165927;28;20258;-91
2022/06/08 01:06:24;;;;;;;6.00;1.70;;;15.80;99.90;;;;;;4166368;28;20164;-91
2022/06/08 01:08:44;;;;;;;4.90;1.65;;;15.70;99.90;;;;;;4165588;28;20204;-91
2022/06/08 01:10:55;;;;;;;3.03;1.70;;;15.80;99.90;;;;;;4166202;28;20179;-91
2022/06/08 01:13:04;;;;;;;7.75;1.83;;;15.80;99.90;;;;;;4165623;28;20179;-91
2022/06/08 01:15:06;;;;;;;6.50;1.42;;;15.80;99.90;;;;;;4182148;28;20171;-91
2022/06/08 01:17:12;;;;;;;5.75;1.80;;;15.80;99.90;;;;;;4165659;28;20175;-91
2022/06/08 01:19:15;;;;;;;3.45;1.70;;;15.90;99.90;;;;;;4165701;28;20184;-90
2022/06/08 01:21:22;;;;;;;5.80;1.40;;;15.90;99.90;;;;;;4165685;28;20207;-92
2022/06/08 01:23:43;;;;;;;2.90;1.65;;;16.00;99.90;;;;;;4182920;28;20293;-92
2022/06/08 01:26:24;;;;;;;4.72;1.58;;;16.00;99.90;;;;;;4182200;28;20179;-90
2022/06/08 01:28:55;;;;;;;5.38;1.83;;;16.10;99.90;;;;;;4181715;28;20880;-92
2022/06/08 01:31:01;;;;;;;2.58;1.60;;;16.00;99.90;;;;;;4181733;28;20182;-92
2022/06/08 01:33:21;;;;;;;8.02;1.80;;;16.10;99.90;;;;;;4165603;28;20168;-91
2022/06/08 01:35:42;;;;;;;5.60;1.58;;;16.10;99.90;;;;;;4165473;28;20691;-91
2022/06/08 01:38:21;;;;;;;8.57;1.63;;;16.10;99.90;;;;;;4165148;28;20200;-92
2022/06/08 01:40:33;;;;;;;6.80;1.67;;;16.10;99.90;;;;;;4164603;28;20242;-91
2022/06/08 01:42:47;;;;;;;5.00;1.50;;;16.10;99.90;;;;;;4165179;28;20266;-91
2022/06/08 01:45:28;;;;;;;6.25;1.48;;;16.10;99.90;;;;;;4181968;28;20210;-90
2022/06/08 01:47:29;;;;;;;5.15;1.50;;;16.20;99.90;;;;;;4181466;28;20209;-90
2022/06/08 01:49:50;;;;;;;4.78;2.08;;;16.20;99.90;;;;;;4181710;28;20175;-95
2022/06/08 01:52:06;;;;;;;10.10;2.40;;;16.00;99.90;;;;;;4165081;28;20179;-90
2022/06/08 01:54:42;;;;;;;6.43;2.17;;;15.80;99.90;;;;;;4165312;28;20176;-90
2022/06/08 01:56:43;;;;;;;4.93;2.28;;;15.70;99.90;;;;;;4165180;28;20253;-91
2022/06/08 01:59:02;;;;;;;5.85;2.17;;;15.60;99.90;;;;;;4164847;28;20204;-92
2022/06/08 02:01:26;;;;;;;4.75;2.40;;;15.40;99.90;;;;;;4165189;28;20179;-91
2022/06/08 02:03:34;;;;;;;7.97;2.08;;;15.50;99.90;;;;;;4165271;28;20180;-91
2022/06/08 02:05:57;;;;;;;5.22;2.10;;;15.50;99.90;;;;;;4165104;28;20173;-91
2022/06/08 02:08:28;;;;;;;7.50;2.25;;;15.50;99.90;;;;;;4181441;28;20192;-91
2022/06/08 02:10:39;;;;;;;4.63;2.20;;;15.50;99.90;;;;;;4181452;28;20171;-92
2022/06/08 02:12:46;;;;;;;5.65;2.20;;;15.40;99.90;;;;;;4181259;28;20177;-93
2022/06/08 02:15:19;;;;;;;3.45;2.20;;;15.50;99.90;;;;;;4181182;28;20182;-91
2022/06/08 02:17:54;;;;;;;5.38;2.08;;;15.60;99.90;;;;;;4155095;28;20274;-91
2022/06/08 02:20:26;;;;;;;4.25;2.63;;;15.60;99.90;;;;;;4181209;28;20195;-91
2022/06/08 02:22:45;;;;;;;5.28;2.42;;;15.60;99.90;;;;;;4181312;28;20682;-90
2022/06/08 02:24:57;;;;;;;6.10;2.50;;;15.60;99.90;;;;;;4164760;28;20571;-92
2022/06/08 02:27:18;;;;;;;2.80;2.10;;;15.60;99.90;;;;;;4164900;28;20171;-91
2022/06/08 02:29:24;;;;;;;4.22;2.42;;;15.60;99.90;;;;;;4165218;28;20172;-92
2022/06/08 02:31:33;;;;;;;5.18;2.28;;;15.60;99.90;;;;;;4165901;28;20204;-91
2022/06/08 02:36:09;;;;;;;3.30;2.03;;;15.40;99.90;;;;;;4186333;28;20176;-91
2022/06/08 02:38:14;;;;;;;5.78;1.98;;;15.40;99.90;;;;;;4164443;28;20219;-91
2022/06/08 02:40:28;;;;;;;7.38;2.42;;;15.30;99.90;;;;;;4164740;28;20246;-90
2022/06/08 02:42:39;;;;;;;6.38;2.28;;;15.30;99.90;;;;;;4165074;28;20274;-92
2022/06/08 02:44:45;;;;;;;5.53;1.92;;;15.30;99.90;;;;;;4180721;28;20214;-92
2022/06/08 02:47:05;;;;;;;8.13;1.85;;;15.30;99.90;;;;;;4164456;28;20266;-90
2022/06/08 02:49:09;;;;;;;6.15;2.13;;;15.40;99.90;;;;;;4164589;28;20552;-92
2022/06/08 02:51:12;;;;;;;6.90;2.00;;;15.40;99.90;;;;;;4166146;28;20654;-91
2022/06/08 02:53:16;;;;;;;4.53;2.08;;;15.30;99.90;;;;;;4168372;28;20191;-92
2022/06/08 02:55:33;;;;;;;3.25;2.00;;;15.40;99.90;;;;;;4184439;28;20304;-91
2022/06/08 02:57:49;;;;;;;3.15;2.00;;;15.50;99.90;;;;;;4167980;28;20246;-91
2022/06/08 03:00:09;;;;;;;5.40;2.10;;;15.50;99.90;;;;;;4167800;28;20167;-92
2022/06/08 03:02:39;;;;;;;4.13;1.80;;;15.50;99.90;;;;;;4167809;28;20190;-95
2022/06/08 03:05:02;;;;;;;5.18;1.85;;;15.50;99.90;;;;;;4167798;28;20215;-91
2022/06/08 03:07:20;;;;;;;5.18;1.80;;;15.50;99.90;;;;;;4167913;28;20704;-91
2022/06/08 03:09:22;;;;;;;3.80;1.67;;;15.40;99.90;;;;;;4167729;28;20282;-92
2022/06/08 03:11:25;;;;;;;6.85;1.90;;;15.50;99.90;;;;;;4167632;28;20176;-91
2022/06/08 03:13:43;;;;;;;12.60;1.83;;;15.50;99.90;;;;;;4167552;28;20187;-92
2022/06/08 03:15:52;;;;;;;5.22;1.77;;;15.40;99.90;;;;;;4167573;28;20179;-91
2022/06/08 03:17:52;;;;;;;5.80;1.90;;;15.50;99.90;;;;;;4167456;28;20274;-91
2022/06/08 03:19:55;;;;;;;4.00;1.90;;;15.60;99.90;;;;;;4167804;28;20703;-91
2022/06/08 03:21:56;;;;;;;5.97;1.73;;;15.60;99.90;;;;;;4167638;28;20171;-91
2022/06/08 03:24:00;;;;;;;7.63;1.80;;;15.60;99.90;;;;;;4167606;28;20699;-92
2022/06/08 03:26:01;;;;;;;7.78;1.67;;;15.80;99.90;;;;;;4167605;28;20168;-91
2022/06/08 03:28:04;;;;;;;5.13;1.83;;;15.80;99.90;;;;;;4167676;28;20195;-94
2022/06/08 03:30:07;;;;;;;4.60;1.90;;;15.70;99.90;;;;;;4184043;28;20202;-90
2022/06/08 03:32:12;;;;;;;5.80;2.35;;;15.70;99.90;;;;;;4167817;28;20172;-93
2022/06/08 03:34:13;;;;;;;5.40;1.75;;;15.70;99.90;;;;;;4167359;28;20632;-90
2022/06/08 03:36:15;;;;;;;3.92;1.88;;;15.70;99.90;;;;;;4183669;28;20215;-93
2022/06/08 03:38:16;;;;;;;4.53;1.60;;;15.60;99.90;;;;;;4166795;28;20188;-93
2022/06/08 03:40:20;;;;;;;8.27;1.77;;;15.80;99.90;;;;;;4183583;28;20679;-92
2022/06/08 03:42:23;;;;;;;4.65;1.52;;;15.70;99.90;;;;;;4167322;28;20169;-93
2022/06/08 03:44:24;;;;;;;3.17;1.55;;;15.80;99.90;;;;;;4167106;28;20211;-93
2022/06/08 03:46:25;;;;;;;4.22;1.73;;;15.80;99.90;;;;;;4183489;28;20176;-95
2022/06/08 03:48:27;;;;;;;5.30;1.77;;;15.80;99.90;;;;;;4167168;28;20256;-92
2022/06/08 03:50:30;;;;;;;5.53;1.60;;;15.90;99.90;;;;;;4183648;28;20207;-91
2022/06/08 03:52:35;;;;;;;4.68;1.98;;;15.90;99.90;;;;;;4183619;28;20183;-92
2022/06/08 03:54:42;;;;;;;5.63;1.67;;;15.90;99.90;;;;;;4167105;28;20169;-92
2022/06/08 03:56:45;;;;;;;3.30;1.60;;;16.00;99.90;;;;;;4167344;28;20234;-93
2022/06/08 03:58:47;;;;;;;4.68;1.40;;;16.00;99.90;;;;;;4183191;28;20206;-94
2022/06/08 04:00:54;;;;;;;5.40;1.70;;;15.90;99.90;;;;;;4167536;28;20216;-91
2022/06/08 04:02:55;;;;;;;6.57;1.90;;;16.00;99.90;;;;;;4165637;28;20735;-92
2022/06/08 04:05:00;;;;;;;5.57;1.70;;;15.80;99.90;;;;;;4167017;28;20576;-91
2022/06/08 04:07:03;;;;;;;5.53;1.70;;;15.80;99.90;;;;;;4167048;28;20179;-92
2022/06/08 04:09:04;;;;;;;4.32;1.50;;;15.90;99.90;;;;;;4166665;28;20306;-91
2022/06/08 04:11:08;;;;;;;4.22;1.50;;;15.90;99.90;;;;;;4183340;28;20254;-93
2022/06/08 04:13:08;;;;;;;6.38;1.83;;;16.00;99.90;;;;;;4166653;28;20243;-93
2022/06/08 04:15:10;;;;;;;6.43;1.90;;;16.00;99.90;;;;;;4166765;28;20179;-92
2022/06/08 04:17:13;;;;;;;4.53;1.67;;;16.00;99.90;;;;;;4183479;28;20179;-92
2022/06/08 04:19:14;;;;;;;5.25;2.05;;;16.10;99.90;;;;;;4166625;28;20164;-91
2022/06/08 04:21:15;;;;;;;5.95;2.38;;;16.10;99.90;;;;;;4183198;28;20167;-92
2022/06/08 04:23:39;;;;;;;12.40;2.33;;;16.20;99.90;;;;;;4182790;28;20180;-93
2022/06/08 04:25:41;;;;;;;9.70;2.20;;;16.20;99.90;;;;;;4166740;28;20636;-94
2022/06/08 04:27:42;;;;;;;6.97;2.33;;;16.10;99.90;;;;;;4166644;28;20326;-92
2022/06/08 04:29:43;;;;;;;4.82;2.10;;;16.30;99.90;;;;;;4166495;28;20176;-91
2022/06/08 04:31:45;;;;;;;5.35;2.70;;;16.40;99.90;;;;;;4166423;28;20231;-92
2022/06/08 04:34:00;;;;;;;7.47;2.42;;;16.40;99.90;;;;;;4168154;28;20180;-94
2022/06/08 04:36:07;;;;;;;4.63;2.15;;;16.40;99.90;;;;;;4183593;28;20270;-94
2022/06/08 04:38:08;;;;;;;4.60;2.42;;;16.40;99.90;;;;;;4182661;28;20226;-91
2022/06/08 04:40:14;;;;;;;7.30;2.80;;;16.40;99.90;;;;;;4182842;28;20183;-91
2022/06/08 04:42:16;;;;;;;4.90;2.65;;;16.50;99.90;;;;;;4166263;28;20180;-91
2022/06/08 04:44:19;;;;;;;5.50;2.33;;;16.60;99.90;;;;;;4166446;28;20246;-92
2022/06/08 04:46:20;;;;;;;4.97;2.20;;;16.60;99.90;;;;;;4166321;28;20178;-92
2022/06/08 04:48:24;;;;;;;10.82;2.53;;;16.60;99.90;;;;;;4166442;28;20684;-90
2022/06/08 04:50:25;;;;;;;7.70;2.67;;;16.60;99.90;;;;;;4166321;28;20176;-90
2022/06/08 04:52:28;;;;;;;5.45;2.30;;;16.50;99.90;;;;;;4182710;28;20245;-91
2022/06/08 04:54:29;;;;;;;7.10;1.90;;;16.50;99.90;;;;;;4166093;28;20161;-92
2022/06/08 04:56:31;;;;;;;8.88;2.25;;;16.60;99.90;;;;;;4166095;28;20258;-91
2022/06/08 04:58:34;;;;;;;7.20;2.00;;;16.60;99.90;;;;;;4182294;28;20196;-92
2022/06/08 05:00:34;;;;;;;6.47;2.05;;;16.60;99.90;;;;;;4165772;28;20188;-92
2022/06/08 05:02:44;;;;;;;10.05;2.00;;;16.60;99.90;;;;;;4182577;28;20258;-91
2022/06/08 05:04:56;;;;;;;5.40;2.17;;;16.60;99.90;;;;;;4167130;28;20306;-91
2022/06/08 05:06:56;;;;;;;13.60;2.15;;;16.50;99.90;;;;;;4165727;28;20169;-92
2022/06/08 05:08:59;;;;;;;12.77;2.40;;;16.60;99.90;;;;;;4182357;28;20292;-93
2022/06/08 05:11:05;;;;;;;6.18;1.92;;;16.60;99.90;;;;;;4166909;28;20169;-95
2022/06/08 05:13:09;;;;;;;8.32;1.90;;;16.60;99.90;;;;;;4182598;28;20522;-94
2022/06/08 05:15:21;;;;;;;8.68;2.17;;;16.70;99.90;;;;;;4166532;28;20595;-94
2022/06/08 05:17:22;;;;;;;7.80;1.63;;;16.70;99.90;;;;;;4165727;28;20672;-93
2022/06/08 05:19:24;;;;;;;3.80;1.63;;;16.70;99.90;;;;;;4181846;28;20168;-94
2022/06/08 05:21:25;;;;;;;11.27;2.30;;;16.80;99.90;;;;;;4165754;28;20176;-94
2022/06/08 05:23:33;;;;;;;11.80;2.13;;;16.80;99.90;;;;;;4165566;28;20206;-94
2022/06/08 05:25:40;;;;;;;7.28;1.80;;;16.70;99.90;;;;;;4166030;28;20250;-94
2022/06/08 05:27:41;;;;;;;10.07;1.83;;;16.70;99.90;;;;;;4165501;28;20196;-94
2022/06/08 05:29:42;;;;;;;3.80;1.50;;;16.70;99.90;;;;;;4165462;28;20176;-95
2022/06/08 05:31:44;;;;;;;8.77;1.60;;;16.70;99.90;;;;;;4165533;28;20218;-94
2022/06/08 05:33:46;;;;;;;6.35;1.70;;;16.80;99.90;;;;;;4165621;28;20165;-93
2022/06/08 05:35:56;;;;;;;5.43;1.80;;;16.90;99.90;;;;;;4166862;28;20164;-93
2022/06/08 05:37:57;;;;;;;10.23;1.77;;;17.00;99.90;;;;;;4165623;28;20196;-94
2022/06/08 05:39:59;;;;;;;7.13;1.60;;;17.10;99.90;;;;;;4165653;28;20176;-94
2022/06/08 05:42:01;;;;;;;4.75;1.40;;;17.10;99.90;;;;;;4165505;28;20165;-94
2022/06/08 05:44:04;;;;;;;6.50;1.42;;;17.20;99.90;;;;;;4165312;28;20211;-93
2022/06/08 05:46:05;;;;;;;7.50;1.50;;;17.10;99.90;;;;;;4165348;28;20191;-93
2022/06/08 05:48:08;;;;;;;6.57;1.40;;;17.30;99.90;;;;;;4165301;28;20207;-95
2022/06/08 05:50:12;;;;;;;9.30;1.45;;;17.30;99.90;;;;;;4165818;28;20223;-94
2022/06/08 05:52:13;;;;;;;5.07;1.30;;;17.20;99.90;;;;;;4165196;28;20165;-93
2022/06/08 05:54:14;;;;;;;7.18;1.40;;;17.20;99.90;;;;;;4165059;28;20613;-94
2022/06/08 05:56:15;;;;;;;6.10;1.67;;;17.20;99.90;;;;;;4165189;28;20176;-94
2022/06/08 05:58:19;;;;;;;6.30;1.10;;;17.20;99.90;;;;;;4165314;28;20188;-94
2022/06/08 06:00:26;;;;;;;7.43;1.88;;;17.10;99.90;;;;;;4181639;28;20169;-94
2022/06/08 06:02:26;;;;;;;4.85;1.42;;;17.00;99.90;;;;;;4165347;28;20537;-93
2022/06/08 06:04:27;;;;;;;3.92;1.58;;;17.00;99.90;;;;;;4181771;28;20211;-93
2022/06/08 06:06:31;;;;;;;8.85;1.25;;;17.00;99.90;;;;;;4181686;28;20238;-94
2022/06/08 06:08:32;;;;;;;4.40;1.17;;;17.00;99.90;;;;;;4165023;28;20215;-92
2022/06/08 06:10:41;;;;;;;6.82;1.65;;;16.90;99.90;;;;;;4181482;28;20559;-93
2022/06/08 06:12:42;;;;;;;7.72;1.48;;;16.90;99.90;;;;;;4164936;28;20632;-93
2022/06/08 06:14:45;;;;;;;8.25;1.58;;;16.90;99.90;;;;;;4165424;28;20206;-93
2022/06/08 06:16:46;;;;;;;4.78;1.27;;;17.00;99.90;;;;;;4165011;28;20333;-93
2022/06/08 06:18:47;;;;;;;6.00;1.15;;;17.10;99.90;;;;;;4164758;28;20245;-94
2022/06/08 06:20:54;;;;;;;10.68;1.90;;;17.10;99.90;;;;;;4181539;28;20183;-95
2022/06/08 06:23:21;;;;;;;5.78;1.30;;;17.20;99.90;;;;;;4168176;28;20176;-95
2022/06/08 06:25:48;;;;;;;5.45;1.17;;;17.20;99.90;;;;;;4167855;28;20187;-94
2022/06/08 06:28:17;;;;;;;8.43;1.63;;;17.20;99.90;;;;;;4168610;28;20199;-93
2022/06/08 06:30:50;;;;;;;9.82;1.70;;;17.10;99.90;;;;;;4149307;28;20183;-94
2022/06/08 06:33:00;;;;;;;6.93;1.45;;;17.10;99.90;;;;;;4166031;28;20227;-94
2022/06/08 06:35:04;;;;;;;8.48;1.42;;;17.00;99.90;;;;;;4164968;28;20207;-94
2022/06/08 06:37:05;;;;;;;9.02;1.52;;;17.00;99.90;;;;;;4164443;28;20230;-94
2022/06/08 06:39:06;;;;;;;11.23;1.48;;;17.10;99.90;;;;;;4181080;28;20195;-93
2022/06/08 06:41:17;;;;;;;7.68;1.67;;;17.10;99.90;;;;;;4165134;28;20168;-92
2022/06/08 06:43:20;;;;;;;7.75;1.10;;;17.20;99.90;;;;;;4164813;28;20231;-94
2022/06/08 06:45:21;;;;;;;7.30;1.60;;;17.10;99.90;;;;;;4181125;28;20211;-94
2022/06/08 06:47:26;;;;;;;9.55;1.38;;;17.10;99.90;;;;;;4164913;28;20168;-92
2022/06/08 06:49:36;;;;;;;11.63;1.75;;;16.90;99.90;;;;;;4165874;28;20191;-93
2022/06/08 06:51:38;;;;;;;7.85;1.80;;;17.00;99.90;;;;;;4164651;28;20259;-94
2022/06/08 06:53:38;;;;;;;9.02;1.77;;;17.10;99.90;;;;;;4164750;28;20706;-92
2022/06/08 06:55:40;;;;;;;10.00;2.00;;;17.00;99.90;;;;;;4164679;28;20172;-93
2022/06/08 06:57:58;;;;;;;8.43;1.77;;;17.00;99.90;;;;;;4166549;28;20196;-94
2022/06/08 07:00:04;;;;;;;6.40;1.55;;;17.00;99.90;;;;;;4165023;28;20164;-93
2022/06/08 07:02:14;;;;;;;12.73;1.63;;;17.00;99.90;;;;;;4181362;28;20172;-95
2022/06/08 07:04:18;;;;;;;6.63;1.38;;;16.80;99.90;;;;;;4180984;28;20210;-94
2022/06/08 07:06:19;;;;;;;6.32;1.67;;;16.90;99.90;;;;;;4181080;28;20203;-94
2022/06/08 07:08:21;;;;;;;6.35;1.50;;;16.80;99.90;;;;;;4164436;28;20189;-93
2022/06/08 07:10:24;;;;;;;11.43;1.90;;;16.90;99.90;;;;;;4165590;28;20188;-93
2022/06/08 07:12:25;;;;;;;9.65;1.95;;;16.80;99.90;;;;;;4164495;28;20176;-93
2022/06/08 07:14:38;;;;;;;6.82;1.67;;;16.80;99.90;;;;;;4181026;28;20204;-96
2022/06/08 07:16:49;;;;;;;9.27;1.75;;;16.80;99.90;;;;;;4165943;28;20180;-94
2022/06/08 07:18:54;;;;;;;8.02;1.55;;;16.80;99.90;;;;;;4164925;28;20199;-95
2022/06/08 07:20:56;;;;;;;10.48;2.13;;;16.80;99.90;;;;;;4181318;28;20182;-94
2022/06/08 07:22:56;;;;;;;10.30;1.83;;;16.70;99.90;;;;;;4181654;28;20172;-94
2022/06/08 07:24:57;;;;;;;5.05;1.90;;;16.70;99.90;;;;;;4180846;28;20214;-95
2022/06/08 07:26:59;;;;;;;10.13;1.73;;;16.60;99.90;;;;;;4164319;28;20168;-94
2022/06/08 07:29:00;;;;;;;8.07;1.63;;;16.60;99.90;;;;;;4163921;28;20196;-94
2022/06/08 07:31:01;;;;;;;6.35;1.70;;;16.80;99.90;;;;;;4164272;28;20518;-93
2022/06/08 07:33:02;;;;;;;9.48;1.65;;;16.70;99.90;;;;;;4164364;28;20179;-94
2022/06/08 07:35:05;;;;;;;7.35;1.92;;;16.80;99.90;;;;;;4164842;28;20270;-95
2022/06/08 07:37:06;;;;;;;6.72;1.83;;;16.70;99.90;;;;;;4182505;28;20171;-94
2022/06/08 07:39:07;;;;;;;10.95;2.00;;;16.60;99.90;;;;;;4168034;28;20290;-96
2022/06/08 07:41:08;;;;;;;9.13;1.83;;;16.40;99.90;;;;;;4167949;28;20184;-93
2022/06/08 07:43:09;;;;;;;7.03;1.60;;;16.30;99.90;;;;;;4184906;28;20171;-96
2022/06/08 07:45:11;;;;;;;6.75;1.88;;;16.20;99.90;;;;;;4184989;28;20215;-94
2022/06/08 07:47:12;;;;;;;8.38;1.80;;;16.10;99.90;;;;;;4167229;28;20532;-95
2022/06/08 07:51:35;;;;;;;13.48;1.67;;;16.20;99.90;;;;;;4185023;28;20175;-95
2022/06/08 07:53:36;;;;;;;7.03;1.80;;;16.10;99.90;;;;;;4167604;28;20176;-95
2022/06/08 07:55:37;;;;;;;7.43;1.70;;;16.20;99.90;;;;;;4167946;28;20624;-95
2022/06/08 07:57:38;;;;;;;11.25;1.70;;;16.30;99.90;;;;;;4183679;28;20195;-93
2022/06/08 07:59:39;;;;;;;7.25;1.35;;;16.40;99.90;;;;;;4169245;28;20178;-96
2022/06/08 08:01:39;;;;;;;10.52;1.52;;;16.30;99.90;;;;;;4167189;28;20625;-92
2022/06/08 08:03:40;;;;;;;5.32;1.55;;;16.30;99.90;;;;;;4168008;28;20172;-95
2022/06/08 08:05:42;;;;;;;7.28;1.38;;;16.20;99.90;;;;;;4184227;28;20571;-95
2022/06/08 08:07:43;;;;;;;8.48;1.58;;;16.20;99.90;;;;;;4183362;28;20700;-93
2022/06/08 08:09:48;;;;;;;12.00;1.67;;;16.20;99.90;;;;;;4183317;28;20187;-92
2022/06/08 08:11:52;;;;;;;13.20;1.70;;;16.30;99.90;;;;;;4168447;28;20172;-94
2022/06/08 08:13:53;;;;;;;8.93;1.60;;;16.30;99.90;;;;;;4166753;28;20253;-93
2022/06/08 08:15:54;;;;;;;8.18;1.63;;;16.30;99.90;;;;;;4167181;28;20629;-96
2022/06/08 08:17:55;;;;;;;12.98;1.95;;;16.30;99.90;;;;;;4166711;28;20286;-93
2022/06/08 08:19:56;;;;;;;8.90;1.70;;;16.40;99.90;;;;;;4183705;28;20171;-93
2022/06/08 08:21:57;;;;;;;8.50;1.65;;;16.30;99.90;;;;;;4183204;28;20190;-93
2022/06/08 08:23:59;;;;;;;8.25;1.33;;;16.40;99.90;;;;;;4183097;28;20680;-92
2022/06/08 08:26:00;;;;;;;11.63;1.73;;;16.40;99.90;;;;;;4166519;28;20344;-92
2022/06/08 08:28:10;;;;;;;9.93;1.60;;;16.60;99.90;;;;;;4184737;28;20571;-94
2022/06/08 08:30:17;;;;;;;8.93;1.60;;;16.40;99.90;;;;;;4167365;28;20600;-96
2022/06/08 08:32:18;;;;;;;4.47;1.20;;;16.40;99.90;;;;;;4183616;28;20167;-95
2022/06/08 08:34:19;;;;;;;5.32;1.30;;;16.20;99.90;;;;;;4185114;28;20176;-95
2022/06/08 08:36:19;;;;;;;4.65;1.40;;;16.00;99.90;;;;;;4167054;28;20176;-94
2022/06/08 08:38:21;;;;;;;4.45;1.27;;;16.00;99.90;;;;;;4183931;28;20230;-94
2022/06/08 08:40:40;;;;;;;5.45;1.33;;;16.00;99.90;;;;;;4167685;28;20183;-94
2022/06/08 08:42:41;;;;;;;6.70;1.58;;;16.10;99.90;;;;;;4166231;28;20211;-94
2022/06/08 08:44:48;;;;;;;5.30;1.50;;;16.10;99.90;;;;;;4182793;28;20218;-95
2022/06/08 08:47:10;;;;;;;7.22;1.20;;;16.30;99.90;;;;;;4166330;28;20171;-93
2022/06/08 08:49:19;;;;;;;9.93;1.60;;;16.30;99.90;;;;;;4166940;28;20206;-95
2022/06/08 08:51:25;;;;;;;6.28;1.35;;;16.20;99.90;;;;;;4166229;28;20176;-95
2022/06/08 08:53:39;;;;;;;9.73;1.58;;;16.30;99.90;;;;;;4182374;28;20182;-93
2022/06/08 08:55:49;;;;;;;7.45;1.27;;;16.40;99.90;;;;;;4166185;28;20525;-93
2022/06/08 08:58:11;;;;;;;7.68;1.45;;;16.30;99.90;;;;;;4165840;28;20199;-95
2022/06/08 09:00:23;;;;;;;5.43;1.55;;;16.30;99.90;;;;;;4166214;28;20255;-94
2022/06/08 09:04:47;;;;;;;11.32;1.90;;;16.50;99.90;;;;;;4181939;28;20668;-95
2022/06/08 09:06:48;;;;;;;5.97;1.98;;;16.30;99.90;;;;;;4166008;28;20164;-94
2022/06/08 09:08:55;;;;;;;8.40;2.50;;;16.30;99.90;;;;;;4183404;28;20203;-95
2022/06/08 09:10:59;;;;;;;6.82;1.73;;;16.30;99.90;;;;;;4183096;28;20167;-93
2022/06/08 09:13:06;;;;;;;7.82;2.25;;;16.30;99.90;;;;;;4182841;28;20186;-93
2022/06/08 09:15:07;;;;;;;8.23;2.30;;;16.40;99.90;;;;;;4167119;28;20183;-94
2022/06/08 09:17:12;;;;;;;8.85;2.50;;;16.40;99.90;;;;;;4166312;28;20288;-94
2022/06/08 09:19:22;;;;;;;9.93;2.28;;;16.40;99.90;;;;;;4167066;28;20176;-93
2022/06/08 09:21:26;;;;;;;8.48;2.30;;;16.40;99.90;;;;;;4165592;28;20183;-94
2022/06/08 09:23:39;;;;;;;9.50;2.25;;;16.50;99.90;;;;;;4183140;28;20620;-93
2022/06/08 09:25:39;;;;;;;9.82;2.88;;;16.40;99.90;;;;;;4166715;28;20266;-93
2022/06/08 09:27:49;;;;;;;6.80;2.00;;;16.30;99.90;;;;;;4183474;28;20202;-94
2022/06/08 09:30:18;;;;;;;6.28;1.80;;;16.40;99.90;;;;;;4167726;28;20198;-93
2022/06/08 09:32:27;;;;;;;9.20;1.80;;;16.30;99.90;;;;;;4167334;28;20247;-95
2022/06/08 09:34:32;;;;;;;5.07;1.58;;;16.10;99.90;;;;;;4165639;28;20206;-94
2022/06/08 09:36:35;;;;;;;6.75;1.90;;;16.00;99.90;;;;;;4165525;28;20207;-93
2022/06/08 09:38:40;;;;;;;7.22;1.88;;;16.10;99.90;;;;;;4165972;28;20188;-95
2022/06/08 09:41:03;;;;;;;3.97;1.30;;;16.10;99.90;;;;;;4166773;28;20179;-95
2022/06/08 09:43:36;;;;;;;3.05;1.17;;;16.00;99.90;;;;;;4169948;28;20322;-94
2022/06/08 09:45:52;;;;;;;4.70;1.38;;;15.80;99.90;;;;;;4167994;28;20241;-94
2022/06/08 09:53:26;;;;;;;6.07;1.42;;;15.60;99.90;;;;;;4182185;28;20273;-95
2022/06/08 09:55:40;;;;;;;5.88;1.58;;;15.70;99.90;;;;;;4165503;28;20219;-94
2022/06/08 09:57:43;;;;;;;6.00;1.80;;;15.70;99.90;;;;;;4166247;28;20206;-93
2022/06/08 10:00:21;;;;;;;5.72;1.60;;;15.70;99.90;;;;;;4165096;28;20180;-94
2022/06/08 10:03:00;;;;;;;7.03;1.83;;;15.60;99.90;;;;;;4167967;28;20204;-96
2022/06/08 10:05:34;;;;;;;9.13;1.40;;;15.60;99.90;;;;;;4166882;28;20254;-93
2022/06/08 10:08:13;;;;;;;5.28;1.50;;;15.70;99.90;;;;;;4168157;28;20264;-95
2022/06/08 10:10:37;;;;;;;3.80;1.48;;;15.60;99.90;;;;;;4167876;28;20409;-94
2022/06/08 10:12:49;;;;;;;4.10;1.23;;;15.60;99.90;;;;;;4166599;28;20645;-95
2022/06/08 10:14:52;;;;;;;5.07;1.38;;;15.50;99.90;;;;;;4165395;28;20176;-94
2022/06/08 10:17:05;;;;;;;4.13;1.20;;;15.60;99.90;;;;;;4183810;28;20175;-93
2022/06/08 10:19:12;;;;;;;4.38;1.10;;;15.60;99.90;;;;;;4165467;28;20222;-95
2022/06/08 10:21:24;;;;;;;11.05;1.60;;;15.80;99.90;;;;;;4165725;28;20737;-96
2022/06/08 10:23:57;;;;;;;5.10;1.70;;;15.80;99.90;;;;;;4166077;28;20310;-95
2022/06/08 10:26:00;;;;;;;5.82;2.05;;;15.70;99.90;;;;;;4165059;28;20358;-93
2022/06/08 10:28:19;;;;;;;4.30;1.80;;;15.80;99.90;;;;;;4164946;28;20204;-95
2022/06/08 10:30:38;;;;;;;4.10;1.80;;;16.00;99.90;;;;;;4164928;28;20183;-95
2022/06/08 10:32:50;;;;;;;7.30;2.22;;;16.00;99.90;;;;;;4164781;28;20172;-93
2022/06/08 10:34:54;;;;;;;3.35;1.83;;;16.00;99.90;;;;;;4164633;28;20172;-93
2022/06/08 10:36:59;;;;;;;3.03;1.90;;;16.00;99.90;;;;;;4164592;28;20167;-93
2022/06/08 10:39:03;;;;;;;8.30;1.90;;;15.90;99.90;;;;;;4182433;28;20203;-93
2022/06/08 10:43:34;;;;;;;4.20;1.50;;;16.00;99.90;;;;;;4180907;28;20207;-95
2022/06/08 10:45:45;;;;;;;6.68;2.25;;;16.10;99.90;;;;;;4164597;28;20216;-94
2022/06/08 10:47:53;;;;;;;5.07;1.65;;;16.20;99.90;;;;;;4180771;28;20198;-94
2022/06/08 10:49:59;;;;;;;4.03;1.65;;;16.20;99.90;;;;;;4180791;28;20179;-94
2022/06/08 10:52:18;;;;;;;3.30;1.58;;;16.20;99.90;;;;;;4180957;28;20175;-94
2022/06/08 10:54:55;;;;;;;2.42;1.00;;;16.30;99.90;;;;;;4181077;28;20182;-95
2022/06/08 10:56:59;;;;;;;3.58;1.10;;;16.30;99.90;;;;;;4181066;28;20259;-93
2022/06/08 10:59:03;;;;;;;1.88;1.00;;;16.30;99.90;;;;;;4180971;28;20195;-93
2022/06/08 11:01:17;;;;;;;2.15;0.50;;;16.40;99.90;;;;;;4164798;28;20186;-96
2022/06/08 11:03:21;;;;;;;2.05;0.70;;;16.50;99.90;;;;;;4164567;28;20171;-95
2022/06/08 11:05:35;;;;;;;1.35;0.50;;;16.60;99.90;;;;;;4181314;28;20215;-93
2022/06/08 11:07:58;;;;;;;4.15;0.90;;;16.50;99.90;;;;;;4180820;28;20202;-94
2022/06/08 11:10:01;;;;;;;2.15;0.60;;;16.70;99.90;;;;;;4165019;28;20196;-96
2022/06/08 11:12:13;;;;;;;1.30;0.60;;;16.60;99.90;;;;;;4166837;28;20176;-93
2022/06/08 11:14:51;;;;;;;1.77;0.35;;;16.60;99.90;;;;;;4184142;28;20233;-93
2022/06/08 11:16:59;;;;;;;3.13;0.50;;;16.80;99.90;;;;;;4168131;28;20706;-93
2022/06/08 11:19:10;;;;;;;1.52;0.55;;;16.80;99.90;;;;;;4184224;28;20229;-95